sensor_id;sensor_type;location;lat;lon;timestamp;P1;durP1;ratioP1;P2;durP2;ratioP2
84379;SDS011;74571;52.514;13.468;2024-01-10T00:00:58;34.30;;;13.90;;
84379;SDS011;74571;52.514;13.468;2024-01-10T00:03:23;36.03;;;14.03;;
84379;SDS011;74571;52.514;13.468;2024-01-10T00:05:52;33.38;;;13.10;;
84379;SDS011;74571;52.514;13.468;2024-01-10T00:10:45;32.40;;;12.13;;
84379;SDS011;74571;52.514;13.468;2024-01-10T00:13:13;33.42;;;12.38;;
84379;SDS011;74571;52.514;13.468;2024-01-10T00:15:38;36.85;;;13.05;;
84379;SDS011;74571;52.514;13.468;2024-01-10T00:20:29;30.27;;;11.10;;
84379;SDS011;74571;52.514;13.468;2024-01-10T00:22:56;34.03;;;14.70;;
84379;SDS011;74571;52.514;13.468;2024-01-10T00:25:25;35.25;;;13.45;;
84379;SDS011;74571;52.514;13.468;2024-01-10T00:30:15;27.30;;;12.17;;
84379;SDS011;74571;52.514;13.468;2024-01-10T00:32:40;39.50;;;15.07;;
84379;SDS011;74571;52.514;13.468;2024-01-10T00:35:06;36.88;;;13.95;;
84379;SDS011;74571;52.514;13.468;2024-01-10T00:37:31;36.13;;;15.05;;
84379;SDS011;74571;52.514;13.468;2024-01-10T00:39:57;34.43;;;13.10;;
84379;SDS011;74571;52.514;13.468;2024-01-10T00:42:22;37.17;;;14.17;;
84379;SDS011;74571;52.514;13.468;2024-01-10T00:44:47;42.00;;;14.17;;
84379;SDS011;74571;52.514;13.468;2024-01-10T00:47:13;39.87;;;13.30;;
84379;SDS011;74571;52.514;13.468;2024-01-10T00:49:38;34.90;;;12.47;;
84379;SDS011;74571;52.514;13.468;2024-01-10T00:54:29;44.13;;;14.82;;
84379;SDS011;74571;52.514;13.468;2024-01-10T00:56:56;42.42;;;15.00;;
84379;SDS011;74571;52.514;13.468;2024-01-10T01:01:47;36.00;;;13.30;;
84379;SDS011;74571;52.514;13.468;2024-01-10T01:04:15;36.97;;;13.82;;
84379;SDS011;74571;52.514;13.468;2024-01-10T01:06:40;37.13;;;14.97;;
84379;SDS011;74571;52.514;13.468;2024-01-10T01:09:05;39.13;;;15.60;;
84379;SDS011;74571;52.514;13.468;2024-01-10T01:11:31;38.70;;;14.23;;
84379;SDS011;74571;52.514;13.468;2024-01-10T01:13:56;41.47;;;13.60;;
84379;SDS011;74571;52.514;13.468;2024-01-10T01:16:21;38.50;;;14.37;;
84379;SDS011;74571;52.514;13.468;2024-01-10T01:18:47;33.00;;;13.50;;
84379;SDS011;74571;52.514;13.468;2024-01-10T01:23:37;34.37;;;13.00;;
84379;SDS011;74571;52.514;13.468;2024-01-10T01:26:03;34.00;;;12.82;;
84379;SDS011;74571;52.514;13.468;2024-01-10T01:28:29;34.03;;;13.27;;
84379;SDS011;74571;52.514;13.468;2024-01-10T01:30:58;36.07;;;13.13;;
84379;SDS011;74571;52.514;13.468;2024-01-10T01:33:23;41.58;;;15.18;;
84379;SDS011;74571;52.514;13.468;2024-01-10T01:38:16;29.17;;;12.17;;
84379;SDS011;74571;52.514;13.468;2024-01-10T01:40:42;33.50;;;12.35;;
84379;SDS011;74571;52.514;13.468;2024-01-10T01:45:50;28.50;;;11.93;;
84379;SDS011;74571;52.514;13.468;2024-01-10T01:48:20;33.45;;;12.60;;
84379;SDS011;74571;52.514;13.468;2024-01-10T01:50:46;37.20;;;13.25;;
84379;SDS011;74571;52.514;13.468;2024-01-10T01:53:13;34.97;;;12.80;;
84379;SDS011;74571;52.514;13.468;2024-01-10T01:58:05;28.83;;;11.45;;
84379;SDS011;74571;52.514;13.468;2024-01-10T02:02:58;29.33;;;11.48;;
84379;SDS011;74571;52.514;13.468;2024-01-10T02:10:15;39.43;;;13.00;;
84379;SDS011;74571;52.514;13.468;2024-01-10T02:15:06;43.67;;;11.37;;
84379;SDS011;74571;52.514;13.468;2024-01-10T02:20:13;28.70;;;10.53;;
84379;SDS011;74571;52.514;13.468;2024-01-10T02:22:39;30.15;;;13.00;;
84379;SDS011;74571;52.514;13.468;2024-01-10T02:27:34;31.23;;;11.70;;
84379;SDS011;74571;52.514;13.468;2024-01-10T02:30:08;36.60;;;13.98;;
84379;SDS011;74571;52.514;13.468;2024-01-10T02:32:36;41.15;;;13.90;;
84379;SDS011;74571;52.514;13.468;2024-01-10T02:37:27;31.98;;;12.32;;
84379;SDS011;74571;52.514;13.468;2024-01-10T02:42:21;32.90;;;12.10;;
84379;SDS011;74571;52.514;13.468;2024-01-10T02:44:46;34.78;;;13.63;;
84379;SDS011;74571;52.514;13.468;2024-01-10T02:49:39;32.67;;;11.73;;
84379;SDS011;74571;52.514;13.468;2024-01-10T02:54:30;25.95;;;11.35;;
84379;SDS011;74571;52.514;13.468;2024-01-10T02:59:20;27.60;;;12.67;;
84379;SDS011;74571;52.514;13.468;2024-01-10T03:04:11;32.87;;;12.67;;
84379;SDS011;74571;52.514;13.468;2024-01-10T03:09:01;27.07;;;11.33;;
84379;SDS011;74571;52.514;13.468;2024-01-10T03:11:30;33.70;;;12.23;;
84379;SDS011;74571;52.514;13.468;2024-01-10T03:14:03;35.53;;;13.63;;
84379;SDS011;74571;52.514;13.468;2024-01-10T03:16:32;31.45;;;11.73;;
84379;SDS011;74571;52.514;13.468;2024-01-10T03:19:00;37.53;;;15.27;;
84379;SDS011;74571;52.514;13.468;2024-01-10T03:23:58;32.93;;;13.27;;
84379;SDS011;74571;52.514;13.468;2024-01-10T03:26:25;32.38;;;13.45;;
84379;SDS011;74571;52.514;13.468;2024-01-10T03:28:51;37.05;;;14.70;;
84379;SDS011;74571;52.514;13.468;2024-01-10T03:33:42;34.73;;;12.77;;
84379;SDS011;74571;52.514;13.468;2024-01-10T03:36:09;34.85;;;14.05;;
84379;SDS011;74571;52.514;13.468;2024-01-10T03:38:36;34.90;;;13.38;;
84379;SDS011;74571;52.514;13.468;2024-01-10T03:43:27;35.97;;;13.53;;
84379;SDS011;74571;52.514;13.468;2024-01-10T03:45:52;34.80;;;14.97;;
84379;SDS011;74571;52.514;13.468;2024-01-10T03:48:17;35.07;;;13.60;;
84379;SDS011;74571;52.514;13.468;2024-01-10T03:50:42;38.03;;;15.20;;
84379;SDS011;74571;52.514;13.468;2024-01-10T03:53:10;31.55;;;13.00;;
84379;SDS011;74571;52.514;13.468;2024-01-10T03:58:00;33.10;;;11.73;;
84379;SDS011;74571;52.514;13.468;2024-01-10T04:00:26;30.57;;;13.30;;
84379;SDS011;74571;52.514;13.468;2024-01-10T04:02:51;36.90;;;13.93;;
84379;SDS011;74571;52.514;13.468;2024-01-10T04:05:17;35.47;;;13.40;;
84379;SDS011;74571;52.514;13.468;2024-01-10T04:12:42;26.10;;;11.27;;
84379;SDS011;74571;52.514;13.468;2024-01-10T04:15:08;28.20;;;13.23;;
84379;SDS011;74571;52.514;13.468;2024-01-10T04:17:34;35.47;;;12.82;;
84379;SDS011;74571;52.514;13.468;2024-01-10T04:20:00;36.33;;;14.50;;
84379;SDS011;74571;52.514;13.468;2024-01-10T04:24:50;27.57;;;10.77;;
84379;SDS011;74571;52.514;13.468;2024-01-10T04:29:44;38.23;;;13.73;;
84379;SDS011;74571;52.514;13.468;2024-01-10T04:32:10;34.47;;;12.68;;
84379;SDS011;74571;52.514;13.468;2024-01-10T04:37:00;33.13;;;12.37;;
84379;SDS011;74571;52.514;13.468;2024-01-10T04:41:51;27.37;;;11.77;;
84379;SDS011;74571;52.514;13.468;2024-01-10T04:44:19;40.63;;;14.07;;
84379;SDS011;74571;52.514;13.468;2024-01-10T04:46:45;37.95;;;13.05;;
84379;SDS011;74571;52.514;13.468;2024-01-10T04:49:13;32.35;;;12.70;;
84379;SDS011;74571;52.514;13.468;2024-01-10T04:54:04;41.47;;;14.65;;
84379;SDS011;74571;52.514;13.468;2024-01-10T04:58:54;34.93;;;12.17;;
84379;SDS011;74571;52.514;13.468;2024-01-10T05:03:45;39.67;;;14.80;;
84379;SDS011;74571;52.514;13.468;2024-01-10T05:08:36;39.93;;;13.77;;
84379;SDS011;74571;52.514;13.468;2024-01-10T05:13:27;37.43;;;14.30;;
84379;SDS011;74571;52.514;13.468;2024-01-10T05:15:55;34.25;;;13.45;;
84379;SDS011;74571;52.514;13.468;2024-01-10T05:18:23;40.42;;;13.95;;
84379;SDS011;74571;52.514;13.468;2024-01-10T05:23:13;38.83;;;13.30;;
84379;SDS011;74571;52.514;13.468;2024-01-10T05:28:04;31.53;;;12.60;;
84379;SDS011;74571;52.514;13.468;2024-01-10T05:32:59;25.55;;;11.60;;
84379;SDS011;74571;52.514;13.468;2024-01-10T05:35:24;31.15;;;12.60;;
84379;SDS011;74571;52.514;13.468;2024-01-10T05:37:51;38.25;;;12.55;;
84379;SDS011;74571;52.514;13.468;2024-01-10T05:42:43;39.28;;;14.00;;
84379;SDS011;74571;52.514;13.468;2024-01-10T05:47:34;43.90;;;14.60;;
84379;SDS011;74571;52.514;13.468;2024-01-10T05:52:25;33.23;;;12.87;;
84379;SDS011;74571;52.514;13.468;2024-01-10T05:57:15;30.83;;;12.37;;
84379;SDS011;74571;52.514;13.468;2024-01-10T05:59:43;36.20;;;12.75;;
84379;SDS011;74571;52.514;13.468;2024-01-10T06:04:34;30.50;;;13.47;;
84379;SDS011;74571;52.514;13.468;2024-01-10T06:09:25;32.22;;;12.73;;
84379;SDS011;74571;52.514;13.468;2024-01-10T06:11:50;34.20;;;13.27;;
84379;SDS011;74571;52.514;13.468;2024-01-10T06:14:15;40.67;;;14.60;;
84379;SDS011;74571;52.514;13.468;2024-01-10T06:16:41;42.58;;;15.27;;
84379;SDS011;74571;52.514;13.468;2024-01-10T06:19:06;39.73;;;14.37;;
84379;SDS011;74571;52.514;13.468;2024-01-10T06:21:32;42.77;;;15.87;;
84379;SDS011;74571;52.514;13.468;2024-01-10T06:23:57;39.17;;;14.77;;
84379;SDS011;74571;52.514;13.468;2024-01-10T06:28:47;37.97;;;13.27;;
84379;SDS011;74571;52.514;13.468;2024-01-10T06:33:38;33.67;;;13.00;;
84379;SDS011;74571;52.514;13.468;2024-01-10T06:36:03;39.93;;;12.57;;
84379;SDS011;74571;52.514;13.468;2024-01-10T06:38:29;33.90;;;13.90;;
84379;SDS011;74571;52.514;13.468;2024-01-10T06:40:54;35.17;;;14.00;;
84379;SDS011;74571;52.514;13.468;2024-01-10T06:43:19;38.60;;;14.60;;
84379;SDS011;74571;52.514;13.468;2024-01-10T06:45:44;38.93;;;14.60;;
84379;SDS011;74571;52.514;13.468;2024-01-10T06:48:10;37.23;;;15.20;;
84379;SDS011;74571;52.514;13.468;2024-01-10T06:53:01;36.47;;;12.82;;
84379;SDS011;74571;52.514;13.468;2024-01-10T06:57:54;42.65;;;12.63;;
84379;SDS011;74571;52.514;13.468;2024-01-10T07:02:45;33.65;;;14.20;;
84379;SDS011;74571;52.514;13.468;2024-01-10T07:07:39;32.42;;;12.18;;
84379;SDS011;74571;52.514;13.468;2024-01-10T07:12:35;40.88;;;14.60;;
84379;SDS011;74571;52.514;13.468;2024-01-10T07:15:00;34.58;;;13.60;;
84379;SDS011;74571;52.514;13.468;2024-01-10T07:17:28;40.13;;;14.85;;
84379;SDS011;74571;52.514;13.468;2024-01-10T07:22:18;31.50;;;12.93;;
84379;SDS011;74571;52.514;13.468;2024-01-10T07:27:15;30.75;;;12.52;;
84379;SDS011;74571;52.514;13.468;2024-01-10T07:32:06;38.72;;;12.77;;
84379;SDS011;74571;52.514;13.468;2024-01-10T07:34:36;36.10;;;14.60;;
84379;SDS011;74571;52.514;13.468;2024-01-10T07:37:04;33.47;;;12.98;;
84379;SDS011;74571;52.514;13.468;2024-01-10T07:41:55;31.17;;;11.98;;
84379;SDS011;74571;52.514;13.468;2024-01-10T07:44:20;42.38;;;14.95;;
84379;SDS011;74571;52.514;13.468;2024-01-10T07:46:45;43.10;;;14.80;;
84379;SDS011;74571;52.514;13.468;2024-01-10T07:49:10;35.20;;;14.57;;
84379;SDS011;74571;52.514;13.468;2024-01-10T07:54:01;40.50;;;14.47;;
84379;SDS011;74571;52.514;13.468;2024-01-10T07:56:27;35.55;;;14.18;;
84379;SDS011;74571;52.514;13.468;2024-01-10T07:58:52;35.87;;;13.00;;
84379;SDS011;74571;52.514;13.468;2024-01-10T08:01:17;45.07;;;16.43;;
84379;SDS011;74571;52.514;13.468;2024-01-10T08:03:43;48.73;;;15.33;;
84379;SDS011;74571;52.514;13.468;2024-01-10T08:08:35;36.35;;;14.27;;
84379;SDS011;74571;52.514;13.468;2024-01-10T08:11:01;43.65;;;15.07;;
84379;SDS011;74571;52.514;13.468;2024-01-10T08:15:52;47.70;;;16.63;;
84379;SDS011;74571;52.514;13.468;2024-01-10T08:20:42;39.90;;;12.73;;
84379;SDS011;74571;52.514;13.468;2024-01-10T08:25:33;35.33;;;14.50;;
84379;SDS011;74571;52.514;13.468;2024-01-10T08:30:24;34.20;;;13.60;;
84379;SDS011;74571;52.514;13.468;2024-01-10T08:32:49;50.05;;;17.92;;
84379;SDS011;74571;52.514;13.468;2024-01-10T08:37:40;48.72;;;14.85;;
84379;SDS011;74571;52.514;13.468;2024-01-10T08:40:08;38.35;;;14.52;;
84379;SDS011;74571;52.514;13.468;2024-01-10T08:42:36;43.20;;;14.85;;
84379;SDS011;74571;52.514;13.468;2024-01-10T08:45:03;40.10;;;14.90;;
84379;SDS011;74571;52.514;13.468;2024-01-10T08:47:29;41.13;;;16.15;;
84379;SDS011;74571;52.514;13.468;2024-01-10T08:50:00;43.65;;;15.38;;
84379;SDS011;74571;52.514;13.468;2024-01-10T08:52:33;37.88;;;14.02;;
84379;SDS011;74571;52.514;13.468;2024-01-10T08:54:59;43.53;;;17.08;;
84379;SDS011;74571;52.514;13.468;2024-01-10T08:57:24;40.90;;;15.13;;
84379;SDS011;74571;52.514;13.468;2024-01-10T08:59:57;40.60;;;16.33;;
84379;SDS011;74571;52.514;13.468;2024-01-10T09:02:22;41.30;;;15.07;;
84379;SDS011;74571;52.514;13.468;2024-01-10T09:04:49;45.40;;;16.70;;
84379;SDS011;74571;52.514;13.468;2024-01-10T09:07:14;37.28;;;15.40;;
84379;SDS011;74571;52.514;13.468;2024-01-10T09:09:40;49.57;;;17.93;;
84379;SDS011;74571;52.514;13.468;2024-01-10T09:12:05;44.15;;;15.25;;
84379;SDS011;74571;52.514;13.468;2024-01-10T09:14:31;39.70;;;14.73;;
84379;SDS011;74571;52.514;13.468;2024-01-10T09:16:56;35.60;;;13.70;;
84379;SDS011;74571;52.514;13.468;2024-01-10T09:19:21;31.90;;;13.63;;
84379;SDS011;74571;52.514;13.468;2024-01-10T09:21:46;38.33;;;15.20;;
84379;SDS011;74571;52.514;13.468;2024-01-10T09:24:13;34.78;;;15.93;;
84379;SDS011;74571;52.514;13.468;2024-01-10T09:26:39;39.38;;;14.10;;
84379;SDS011;74571;52.514;13.468;2024-01-10T09:29:06;41.38;;;14.20;;
84379;SDS011;74571;52.514;13.468;2024-01-10T09:31:31;47.22;;;16.25;;
84379;SDS011;74571;52.514;13.468;2024-01-10T09:33:56;36.57;;;15.17;;
84379;SDS011;74571;52.514;13.468;2024-01-10T09:36:22;35.92;;;14.48;;
84379;SDS011;74571;52.514;13.468;2024-01-10T09:38:47;40.93;;;15.57;;
84379;SDS011;74571;52.514;13.468;2024-01-10T09:41:12;38.53;;;14.83;;
84379;SDS011;74571;52.514;13.468;2024-01-10T09:43:39;44.83;;;14.23;;
84379;SDS011;74571;52.514;13.468;2024-01-10T09:46:05;40.60;;;14.27;;
84379;SDS011;74571;52.514;13.468;2024-01-10T09:48:32;37.38;;;16.00;;
84379;SDS011;74571;52.514;13.468;2024-01-10T09:50:57;43.13;;;15.27;;
84379;SDS011;74571;52.514;13.468;2024-01-10T09:53:24;42.70;;;15.80;;
84379;SDS011;74571;52.514;13.468;2024-01-10T09:55:56;46.33;;;17.80;;
84379;SDS011;74571;52.514;13.468;2024-01-10T09:58:25;42.15;;;15.40;;
84379;SDS011;74571;52.514;13.468;2024-01-10T10:00:51;47.17;;;15.65;;
84379;SDS011;74571;52.514;13.468;2024-01-10T10:03:17;40.72;;;16.10;;
84379;SDS011;74571;52.514;13.468;2024-01-10T10:05:45;43.00;;;17.98;;
84379;SDS011;74571;52.514;13.468;2024-01-10T10:08:13;40.28;;;15.05;;
84379;SDS011;74571;52.514;13.468;2024-01-10T10:10:50;46.63;;;16.85;;
84379;SDS011;74571;52.514;13.468;2024-01-10T10:13:23;41.65;;;15.60;;
84379;SDS011;74571;52.514;13.468;2024-01-10T10:16:03;36.25;;;15.18;;
84379;SDS011;74571;52.514;13.468;2024-01-10T10:18:29;42.92;;;17.40;;
84379;SDS011;74571;52.514;13.468;2024-01-10T10:21:14;45.95;;;15.52;;
84379;SDS011;74571;52.514;13.468;2024-01-10T10:23:40;51.55;;;17.52;;
84379;SDS011;74571;52.514;13.468;2024-01-10T10:26:13;40.05;;;16.30;;
84379;SDS011;74571;52.514;13.468;2024-01-10T10:28:44;36.35;;;13.32;;
84379;SDS011;74571;52.514;13.468;2024-01-10T10:31:11;36.85;;;14.15;;
84379;SDS011;74571;52.514;13.468;2024-01-10T10:33:36;37.78;;;13.02;;
84379;SDS011;74571;52.514;13.468;2024-01-10T10:36:02;40.17;;;13.73;;
84379;SDS011;74571;52.514;13.468;2024-01-10T10:38:28;38.60;;;12.77;;
84379;SDS011;74571;52.514;13.468;2024-01-10T10:40:53;37.97;;;15.63;;
84379;SDS011;74571;52.514;13.468;2024-01-10T10:43:20;34.47;;;13.23;;
84379;SDS011;74571;52.514;13.468;2024-01-10T10:45:50;31.45;;;12.13;;
84379;SDS011;74571;52.514;13.468;2024-01-10T10:48:16;36.75;;;13.07;;
84379;SDS011;74571;52.514;13.468;2024-01-10T10:50:43;32.83;;;12.70;;
84379;SDS011;74571;52.514;13.468;2024-01-10T10:53:15;34.75;;;13.85;;
84379;SDS011;74571;52.514;13.468;2024-01-10T10:55:43;36.40;;;13.27;;
84379;SDS011;74571;52.514;13.468;2024-01-10T10:58:11;33.45;;;12.40;;
84379;SDS011;74571;52.514;13.468;2024-01-10T11:00:38;37.30;;;13.65;;
84379;SDS011;74571;52.514;13.468;2024-01-10T11:03:05;35.30;;;10.68;;
84379;SDS011;74571;52.514;13.468;2024-01-10T11:05:35;34.05;;;11.85;;
84379;SDS011;74571;52.514;13.468;2024-01-10T11:08:05;31.50;;;11.63;;
84379;SDS011;74571;52.514;13.468;2024-01-10T11:10:35;34.88;;;12.70;;
84379;SDS011;74571;52.514;13.468;2024-01-10T11:22:10;31.45;;;10.80;;
84379;SDS011;74571;52.514;13.468;2024-01-10T11:24:50;32.70;;;11.38;;
84379;SDS011;74571;52.514;13.468;2024-01-10T11:27:16;32.10;;;12.30;;
84379;SDS011;74571;52.514;13.468;2024-01-10T11:29:43;27.55;;;11.98;;
84379;SDS011;74571;52.514;13.468;2024-01-10T11:32:15;33.35;;;11.35;;
84379;SDS011;74571;52.514;13.468;2024-01-10T11:34:54;24.90;;;11.05;;
84379;SDS011;74571;52.514;13.468;2024-01-10T11:37:23;31.20;;;11.95;;
84379;SDS011;74571;52.514;13.468;2024-01-10T11:40:07;27.38;;;10.65;;
84379;SDS011;74571;52.514;13.468;2024-01-10T11:42:43;23.98;;;10.85;;
84379;SDS011;74571;52.514;13.468;2024-01-10T11:45:13;26.33;;;10.15;;
84379;SDS011;74571;52.514;13.468;2024-01-10T11:48:01;27.02;;;11.10;;
84379;SDS011;74571;52.514;13.468;2024-01-10T11:50:26;25.97;;;10.60;;
84379;SDS011;74571;52.514;13.468;2024-01-10T11:52:53;25.60;;;10.90;;
84379;SDS011;74571;52.514;13.468;2024-01-10T11:58:13;22.50;;;10.20;;
84379;SDS011;74571;52.514;13.468;2024-01-10T12:00:39;22.25;;;10.00;;
84379;SDS011;74571;52.514;13.468;2024-01-10T12:03:06;29.85;;;12.63;;
84379;SDS011;74571;52.514;13.468;2024-01-10T12:05:32;29.92;;;10.73;;
84379;SDS011;74571;52.514;13.468;2024-01-10T12:07:59;28.45;;;11.45;;
84379;SDS011;74571;52.514;13.468;2024-01-10T12:10:25;31.43;;;11.73;;
84379;SDS011;74571;52.514;13.468;2024-01-10T12:12:51;28.35;;;11.07;;
84379;SDS011;74571;52.514;13.468;2024-01-10T12:15:19;29.23;;;12.07;;
84379;SDS011;74571;52.514;13.468;2024-01-10T12:17:45;26.20;;;11.00;;
84379;SDS011;74571;52.514;13.468;2024-01-10T12:20:11;31.40;;;10.77;;
84379;SDS011;74571;52.514;13.468;2024-01-10T12:22:37;30.98;;;11.82;;
84379;SDS011;74571;52.514;13.468;2024-01-10T12:25:05;28.23;;;11.10;;
84379;SDS011;74571;52.514;13.468;2024-01-10T12:27:30;25.50;;;10.70;;
84379;SDS011;74571;52.514;13.468;2024-01-10T12:29:55;28.10;;;11.00;;
84379;SDS011;74571;52.514;13.468;2024-01-10T12:32:21;33.30;;;10.97;;
84379;SDS011;74571;52.514;13.468;2024-01-10T12:34:47;32.97;;;12.05;;
84379;SDS011;74571;52.514;13.468;2024-01-10T12:37:12;26.30;;;10.63;;
84379;SDS011;74571;52.514;13.468;2024-01-10T12:39:38;30.47;;;11.73;;
84379;SDS011;74571;52.514;13.468;2024-01-10T12:42:03;29.17;;;12.47;;
84379;SDS011;74571;52.514;13.468;2024-01-10T12:44:32;27.63;;;11.50;;
84379;SDS011;74571;52.514;13.468;2024-01-10T12:46:57;24.73;;;9.35;;
84379;SDS011;74571;52.514;13.468;2024-01-10T12:49:23;27.17;;;10.95;;
84379;SDS011;74571;52.514;13.468;2024-01-10T12:51:48;32.40;;;11.17;;
84379;SDS011;74571;52.514;13.468;2024-01-10T12:54:14;33.80;;;11.30;;
84379;SDS011;74571;52.514;13.468;2024-01-10T12:56:42;29.88;;;11.10;;
84379;SDS011;74571;52.514;13.468;2024-01-10T12:59:07;31.67;;;10.38;;
84379;SDS011;74571;52.514;13.468;2024-01-10T13:01:34;28.15;;;10.68;;
84379;SDS011;74571;52.514;13.468;2024-01-10T13:03:59;29.15;;;10.70;;
84379;SDS011;74571;52.514;13.468;2024-01-10T13:06:25;26.70;;;12.20;;
84379;SDS011;74571;52.514;13.468;2024-01-10T13:08:50;26.57;;;10.57;;
84379;SDS011;74571;52.514;13.468;2024-01-10T13:11:15;26.73;;;10.67;;
84379;SDS011;74571;52.514;13.468;2024-01-10T13:13:41;28.63;;;10.35;;
84379;SDS011;74571;52.514;13.468;2024-01-10T13:16:08;22.52;;;9.43;;
84379;SDS011;74571;52.514;13.468;2024-01-10T13:18:35;26.45;;;9.68;;
84379;SDS011;74571;52.514;13.468;2024-01-10T13:21:02;27.67;;;10.38;;
84379;SDS011;74571;52.514;13.468;2024-01-10T13:23:27;26.73;;;10.60;;
84379;SDS011;74571;52.514;13.468;2024-01-10T13:25:52;32.57;;;10.77;;
84379;SDS011;74571;52.514;13.468;2024-01-10T13:28:18;27.10;;;10.50;;
84379;SDS011;74571;52.514;13.468;2024-01-10T13:30:47;26.67;;;9.77;;
84379;SDS011;74571;52.514;13.468;2024-01-10T13:33:12;26.08;;;10.00;;
84379;SDS011;74571;52.514;13.468;2024-01-10T13:35:38;27.88;;;10.52;;
84379;SDS011;74571;52.514;13.468;2024-01-10T13:38:04;27.20;;;10.50;;
84379;SDS011;74571;52.514;13.468;2024-01-10T13:40:30;28.42;;;11.63;;
84379;SDS011;74571;52.514;13.468;2024-01-10T13:42:56;28.65;;;10.00;;
84379;SDS011;74571;52.514;13.468;2024-01-10T13:45:22;29.67;;;11.30;;
84379;SDS011;74571;52.514;13.468;2024-01-10T13:47:47;24.17;;;10.57;;
84379;SDS011;74571;52.514;13.468;2024-01-10T13:50:16;27.70;;;11.35;;
84379;SDS011;74571;52.514;13.468;2024-01-10T13:52:41;27.30;;;10.80;;
84379;SDS011;74571;52.514;13.468;2024-01-10T13:55:07;25.23;;;10.45;;
84379;SDS011;74571;52.514;13.468;2024-01-10T13:57:33;28.85;;;11.13;;
84379;SDS011;74571;52.514;13.468;2024-01-10T13:59:59;24.33;;;10.20;;
84379;SDS011;74571;52.514;13.468;2024-01-10T14:02:25;26.60;;;11.35;;
84379;SDS011;74571;52.514;13.468;2024-01-10T14:04:51;29.90;;;10.35;;
84379;SDS011;74571;52.514;13.468;2024-01-10T14:07:19;27.63;;;9.45;;
84379;SDS011;74571;52.514;13.468;2024-01-10T14:09:44;22.67;;;9.50;;
84379;SDS011;74571;52.514;13.468;2024-01-10T14:12:10;22.83;;;9.30;;
84379;SDS011;74571;52.514;13.468;2024-01-10T14:14:35;22.00;;;8.70;;
84379;SDS011;74571;52.514;13.468;2024-01-10T14:17:00;21.43;;;8.93;;
84379;SDS011;74571;52.514;13.468;2024-01-10T14:19:26;22.67;;;9.13;;
84379;SDS011;74571;52.514;13.468;2024-01-10T14:21:51;21.30;;;8.53;;
84379;SDS011;74571;52.514;13.468;2024-01-10T14:24:17;22.23;;;9.05;;
84379;SDS011;74571;52.514;13.468;2024-01-10T14:26:42;23.85;;;8.57;;
84379;SDS011;74571;52.514;13.468;2024-01-10T14:29:08;21.60;;;8.63;;
84379;SDS011;74571;52.514;13.468;2024-01-10T14:31:34;21.87;;;8.17;;
84379;SDS011;74571;52.514;13.468;2024-01-10T14:33:59;23.43;;;8.13;;
84379;SDS011;74571;52.514;13.468;2024-01-10T14:36:24;21.10;;;8.25;;
84379;SDS011;74571;52.514;13.468;2024-01-10T14:38:50;19.10;;;8.23;;
84379;SDS011;74571;52.514;13.468;2024-01-10T14:41:15;20.38;;;7.82;;
84379;SDS011;74571;52.514;13.468;2024-01-10T14:43:41;18.17;;;7.77;;
84379;SDS011;74571;52.514;13.468;2024-01-10T14:46:06;20.23;;;8.33;;
84379;SDS011;74571;52.514;13.468;2024-01-10T14:48:31;19.37;;;7.60;;
84379;SDS011;74571;52.514;13.468;2024-01-10T14:50:58;15.32;;;7.03;;
84379;SDS011;74571;52.514;13.468;2024-01-10T14:53:25;21.10;;;8.13;;
84379;SDS011;74571;52.514;13.468;2024-01-10T14:55:50;17.40;;;7.50;;
84379;SDS011;74571;52.514;13.468;2024-01-10T14:58:15;21.80;;;8.17;;
84379;SDS011;74571;52.514;13.468;2024-01-10T15:00:40;16.33;;;7.23;;
84379;SDS011;74571;52.514;13.468;2024-01-10T15:03:08;18.05;;;7.97;;
84379;SDS011;74571;52.514;13.468;2024-01-10T15:05:34;22.83;;;8.90;;
84379;SDS011;74571;52.514;13.468;2024-01-10T15:08:00;22.67;;;9.93;;
84379;SDS011;74571;52.514;13.468;2024-01-10T15:10:26;25.55;;;9.23;;
84379;SDS011;74571;52.514;13.468;2024-01-10T15:12:54;26.38;;;9.25;;
84379;SDS011;74571;52.514;13.468;2024-01-10T15:15:19;21.10;;;9.07;;
84379;SDS011;74571;52.514;13.468;2024-01-10T15:17:45;20.10;;;9.25;;
84379;SDS011;74571;52.514;13.468;2024-01-10T15:20:11;28.07;;;8.63;;
84379;SDS011;74571;52.514;13.468;2024-01-10T15:22:36;23.13;;;9.70;;
84379;SDS011;74571;52.514;13.468;2024-01-10T15:25:06;27.90;;;9.40;;
84379;SDS011;74571;52.514;13.468;2024-01-10T15:27:40;26.52;;;10.07;;
84379;SDS011;74571;52.514;13.468;2024-01-10T15:30:06;26.30;;;9.57;;
84379;SDS011;74571;52.514;13.468;2024-01-10T15:32:31;20.33;;;8.63;;
84379;SDS011;74571;52.514;13.468;2024-01-10T15:34:57;20.70;;;9.45;;
84379;SDS011;74571;52.514;13.468;2024-01-10T15:37:23;29.23;;;9.33;;
84379;SDS011;74571;52.514;13.468;2024-01-10T15:39:50;25.67;;;9.70;;
84379;SDS011;74571;52.514;13.468;2024-01-10T15:42:16;25.70;;;9.73;;
84379;SDS011;74571;52.514;13.468;2024-01-10T15:44:42;25.63;;;9.80;;
84379;SDS011;74571;52.514;13.468;2024-01-10T15:47:07;29.65;;;9.85;;
84379;SDS011;74571;52.514;13.468;2024-01-10T15:49:33;23.73;;;9.70;;
84379;SDS011;74571;52.514;13.468;2024-01-10T15:52:01;28.00;;;10.07;;
84379;SDS011;74571;52.514;13.468;2024-01-10T15:54:27;30.35;;;10.52;;
84379;SDS011;74571;52.514;13.468;2024-01-10T15:56:53;25.55;;;10.32;;
84379;SDS011;74571;52.514;13.468;2024-01-10T15:59:18;30.42;;;11.25;;
84379;SDS011;74571;52.514;13.468;2024-01-10T16:01:44;31.93;;;10.67;;
84379;SDS011;74571;52.514;13.468;2024-01-10T16:04:09;28.77;;;11.67;;
84379;SDS011;74571;52.514;13.468;2024-01-10T16:06:35;32.95;;;12.45;;
84379;SDS011;74571;52.514;13.468;2024-01-10T16:09:01;34.08;;;12.48;;
84379;SDS011;74571;52.514;13.468;2024-01-10T16:11:28;30.25;;;10.93;;
84379;SDS011;74571;52.514;13.468;2024-01-10T16:13:54;30.55;;;12.18;;
84379;SDS011;74571;52.514;13.468;2024-01-10T16:16:21;30.73;;;11.47;;
84379;SDS011;74571;52.514;13.468;2024-01-10T16:18:51;33.97;;;12.02;;
84379;SDS011;74571;52.514;13.468;2024-01-10T16:21:16;30.77;;;12.40;;
84379;SDS011;74571;52.514;13.468;2024-01-10T16:23:41;31.63;;;11.90;;
84379;SDS011;74571;52.514;13.468;2024-01-10T16:26:07;33.37;;;11.93;;
84379;SDS011;74571;52.514;13.468;2024-01-10T16:28:35;28.70;;;11.45;;
84379;SDS011;74571;52.514;13.468;2024-01-10T16:31:01;27.88;;;11.73;;
84379;SDS011;74571;52.514;13.468;2024-01-10T16:33:26;29.88;;;12.23;;
84379;SDS011;74571;52.514;13.468;2024-01-10T16:35:52;34.30;;;12.88;;
84379;SDS011;74571;52.514;13.468;2024-01-10T16:38:17;30.80;;;11.97;;
84379;SDS011;74571;52.514;13.468;2024-01-10T16:40:42;31.00;;;11.17;;
84379;SDS011;74571;52.514;13.468;2024-01-10T16:43:08;29.60;;;12.83;;
84379;SDS011;74571;52.514;13.468;2024-01-10T16:45:33;39.17;;;14.13;;
84379;SDS011;74571;52.514;13.468;2024-01-10T16:48:00;33.58;;;12.65;;
84379;SDS011;74571;52.514;13.468;2024-01-10T16:50:25;33.20;;;12.43;;
84379;SDS011;74571;52.514;13.468;2024-01-10T16:52:55;31.63;;;13.07;;
84379;SDS011;74571;52.514;13.468;2024-01-10T16:55:20;31.73;;;12.23;;